ハンブルク の空港の天気 - METARとTAF

ハンブルク国際空港 ( EDDH / HAM ) - ドイツ ハンブルク
飛行場実況気象(Metar)
観測時間09/25 23:20 CEST (09/25 21:20 UTC)
風向・風速南西 3m/s
視程10km以上
天気現象
なし
気温8℃
湿度93%
気圧1009hPa
METAREDDH 252120Z AUTO 23005KT CAVOK 08/07 Q1009 NOSIG
過去の天気等 Google飛行場航空写真 Wunderground天気予報

過去48時間のMETAR

飛行場予報(TAF)
発表時間: 9/25 19:00 CEST (9/25 17:00 UTC)
予報対象時間: 25日20時 CEST ~ 27日2時 CEST
風向・風速南西 2m/s
視程10km以上
なし
26日5時 CEST ~ 26日7時 CEST に徐々に
風向・風速南南西 6m/s
26日7時 CEST ~ 26日10時 CEST に 確率 30% で一時的に
全天の8割程度の雲 雲底高度 270m
26日11時 CEST ~ 26日18時 CEST に一時的に
風向・風速南南西 8m/s 瞬間風速 13m/s
26日14時 CEST ~ 26日23時 CEST に 確率 30% で一時的に
天気現象
26日21時 CEST ~ 26日23時 CEST に徐々に
全天の8割程度の雲 雲底高度 370m
26日23時 CEST ~ 27日2時 CEST に 確率 40% で一時的に
全天の8割程度の雲 雲底高度 240m
TAF EDDH 251700Z 2518/2624 22004KT CAVOK
BECMG 2603/2605 20011KT
PROB30 TEMPO 2605/2608 BKN009
TEMPO 2609/2616 21015G25KT
PROB30 TEMPO 2612/2621 RA
BECMG 2619/2621 BKN012
PROB40 TEMPO 2621/2624 BKN008